Time;durP1;ratioP1;P1;durP2;ratioP2;P2;SDS_P1;SDS_P2;PMS_P1;PMS_P2;Temp;Humidity;BMP_temperature;BMP_pressure;BME280_temperature;BME280_humidity;BME280_pressure;Samples;Min_cycle;Max_cycle;Signal;HPM_P1;HPM_P2
2022/12/06 00:01:09;;;;;;;70.50;28.13;;;;;;;4.28;100.00;101492.75;4973471;28;20030;-72
2022/12/06 00:03:35;;;;;;;77.03;29.08;;;;;;;4.15;100.00;101497.22;4966905;28;20089;-72
2022/12/06 00:06:16;;;;;;;88.93;32.78;;;;;;;4.19;100.00;101488.03;4971993;28;20022;-74
2022/12/06 00:08:41;;;;;;;72.43;29.80;;;;;;;4.04;100.00;101488.09;4961611;28;20077;-74
2022/12/06 00:11:10;;;;;;;87.93;31.52;;;;;;;4.06;100.00;101488.84;4968031;28;20052;-74
2022/12/06 00:13:37;;;;;;;61.75;25.73;;;;;;;3.96;100.00;101487.69;4962229;28;20066;-74
2022/12/06 00:16:08;;;;;;;65.53;25.35;;;;;;;4.07;100.00;101495.91;4975370;28;20022;-74
2022/12/06 00:18:36;;;;;;;64.25;25.90;;;;;;;4.08;100.00;101492.25;4975432;28;20129;-75
2022/12/06 00:21:07;;;;;;;63.47;25.35;;;;;;;4.19;100.00;101488.03;4987347;28;20030;-74
2022/12/06 00:23:36;;;;;;;66.63;26.02;;;;;;;4.17;100.00;101489.91;4975021;28;20022;-75
2022/12/06 00:26:01;;;;;;;64.43;25.83;;;;;;;4.18;100.00;101492.53;4987596;28;20042;-75
2022/12/06 00:28:26;;;;;;;77.20;29.00;;;;;;;4.22;100.00;101487.81;4973698;28;20022;-75
2022/12/06 00:31:00;;;;;;;59.88;23.58;;;;;;;4.24;100.00;101485.91;4972712;28;20026;-75
2022/12/06 00:33:26;;;;;;;86.72;28.90;;;;;;;4.34;100.00;101476.25;4973489;28;20030;-74
2022/12/06 00:35:55;;;;;;;67.35;26.27;;;;;;;4.34;100.00;101486.97;4980098;28;20048;-75
2022/12/06 00:38:20;;;;;;;63.35;25.35;;;;;;;4.43;100.00;101481.00;4962214;28;20364;-73
2022/12/06 00:40:46;;;;;;;72.00;27.20;;;;;;;4.29;100.00;101481.94;4968938;28;20030;-73
2022/12/06 00:43:11;;;;;;;74.97;29.10;;;;;;;4.44;100.00;101477.38;4979266;28;20030;-73
2022/12/06 00:45:37;;;;;;;63.65;24.25;;;;;;;4.31;100.00;101484.53;4972575;28;20038;-73
2022/12/06 00:48:03;;;;;;;78.75;26.67;;;;;;;4.37;100.00;101481.44;4964756;28;20030;-73
2022/12/06 00:50:29;;;;;;;88.40;26.55;;;;;;;4.27;100.00;101480.31;4962051;28;20557;-73
2022/12/06 00:52:54;;;;;;;96.78;29.83;;;;;;;4.29;100.00;101475.69;4972684;28;20030;-72
2022/12/06 00:55:19;;;;;;;134.90;36.22;;;;;;;4.15;100.00;101470.41;4972800;28;20018;-74
2022/12/06 00:57:45;;;;;;;89.50;27.45;;;;;;;4.13;100.00;101472.34;4970062;28;20078;-72
2022/12/06 01:00:11;;;;;;;59.55;24.33;;;;;;;4.39;100.00;101466.09;4968206;28;20097;-74
2022/12/06 01:02:36;;;;;;;85.70;28.75;;;;;;;4.42;100.00;101467.69;4972241;28;20391;-74
2022/12/06 01:05:02;;;;;;;75.47;27.25;;;;;;;4.41;100.00;101466.84;4967248;28;20025;-74
2022/12/06 01:07:27;;;;;;;86.35;28.00;;;;;;;4.48;100.00;101462.78;4969144;28;20029;-74
2022/12/06 01:09:53;;;;;;;86.05;27.55;;;;;;;4.41;100.00;101466.84;4964555;28;20368;-74
2022/12/06 01:12:18;;;;;;;71.82;25.70;;;;;;;4.40;100.00;101459.75;4964418;28;20094;-74
2022/12/06 01:14:44;;;;;;;72.60;26.08;;;;;;;4.50;100.00;101459.97;4963300;28;20494;-74
2022/12/06 01:17:09;;;;;;;77.22;28.00;;;;;;;4.51;100.00;101467.94;4977851;28;20129;-74
2022/12/06 01:19:35;;;;;;;87.13;26.67;;;;;;;4.41;100.00;101463.31;4970171;28;20034;-74
2022/12/06 01:22:00;;;;;;;66.88;25.27;;;;;;;4.51;100.00;101462.59;4954156;28;20027;-72
2022/12/06 01:24:25;;;;;;;90.50;29.85;;;;;;;4.46;100.00;101459.34;4963927;28;20113;-72
2022/12/06 01:26:51;;;;;;;75.35;28.20;;;;;;;4.53;100.00;101457.97;4963895;28;20044;-72
2022/12/06 01:29:17;;;;;;;75.85;26.10;;;;;;;4.28;100.00;101465.94;4957416;28;20038;-72
2022/12/06 01:31:43;;;;;;;98.50;32.78;;;;;;;4.45;100.00;101463.00;4963507;28;20034;-73
2022/12/06 01:34:14;;;;;;;90.80;29.08;;;;;;;4.40;100.00;101454.41;4972625;28;20026;-72
2022/12/06 01:36:40;;;;;;;57.13;22.30;;;;;;;4.60;100.00;101456.56;4964650;28;20127;-73
2022/12/06 01:39:09;;;;;;;85.65;29.20;;;;;;;4.76;100.00;101450.13;4972916;28;20042;-73
2022/12/06 01:41:36;;;;;;;56.83;22.85;;;;;;;4.60;100.00;101450.34;4973001;28;20117;-73
2022/12/06 01:44:02;;;;;;;56.17;22.98;;;;;;;4.62;100.00;101454.63;4988998;28;20022;-73
2022/12/06 01:46:28;;;;;;;57.58;22.40;;;;;;;4.66;100.00;101449.06;4964108;28;20118;-73
2022/12/06 01:49:00;;;;;;;65.28;24.33;;;;;;;4.84;100.00;101453.16;4961790;28;20113;-73
2022/12/06 01:51:26;;;;;;;75.38;25.98;;;;;;;4.72;100.00;101448.66;4973858;28;20030;-73
2022/12/06 01:53:53;;;;;;;50.85;21.13;;;;;;;4.69;100.00;101455.06;4991242;28;20359;-73
2022/12/06 01:56:19;;;;;;;45.33;18.83;;;;;;;4.68;100.00;101457.88;5012157;28;20022;-73
2022/12/06 01:58:47;;;;;;;55.58;21.73;;;;;;;4.75;100.00;101453.78;4990735;28;20113;-73
2022/12/06 02:01:14;;;;;;;57.60;20.40;;;;;;;4.65;100.00;101458.09;4983779;28;20026;-72
2022/12/06 02:03:41;;;;;;;50.83;19.65;;;;;;;4.72;100.00;101459.38;4978058;28;20030;-72
2022/12/06 02:06:07;;;;;;;66.07;23.98;;;;;;;4.60;100.00;101456.56;4986092;28;20144;-72
2022/12/06 02:08:34;;;;;;;51.88;21.85;;;;;;;4.49;100.00;101453.75;4979392;28;20022;-72
2022/12/06 02:11:01;;;;;;;61.13;20.88;;;;;;;4.66;100.00;101451.75;4974745;28;20026;-72
2022/12/06 02:13:28;;;;;;;70.55;23.83;;;;;;;4.62;100.00;101446.59;4981272;28;20042;-72
2022/12/06 02:16:16;;;;;;;59.83;20.83;;;;;;;4.40;100.00;101443.69;4976990;28;20022;-72
2022/12/06 02:19:16;;;;;;;59.35;20.80;;;;;;;4.46;100.00;101437.91;4975301;28;20022;-73
2022/12/06 02:21:57;;;;;;;52.53;20.85;;;;;;;4.53;100.00;101433.84;4975959;28;20479;-72
2022/12/06 02:24:38;;;;;;;55.63;22.58;;;;;;;4.51;100.00;101434.91;4970025;28;20018;-75
2022/12/06 02:27:37;;;;;;;46.75;19.98;;;;;;;4.51;100.00;101422.38;4958298;28;20030;-72
2022/12/06 02:30:26;;;;;;;59.95;21.52;;;;;;;4.56;100.00;101420.22;4966905;28;20029;-74
2022/12/06 02:33:04;;;;;;;46.63;18.20;;;;;;;4.75;100.00;101421.59;4982932;28;20105;-73
2022/12/06 02:35:40;;;;;;;46.75;19.58;;;;;;;4.83;100.00;101417.44;4967217;28;20484;-72
2022/12/06 02:38:16;;;;;;;47.67;19.55;;;;;;;4.65;100.00;101409.81;4974234;28;20037;-72
2022/12/06 02:40:49;;;;;;;56.28;21.20;;;;;;;4.74;100.00;101414.53;4972169;28;20022;-72
2022/12/06 02:43:22;;;;;;;53.67;19.80;;;;;;;4.64;100.00;101414.31;4971274;28;20030;-72
2022/12/06 02:45:52;;;;;;;46.20;19.13;;;;;;;4.62;100.00;101411.72;4968855;28;20062;-72
2022/12/06 02:48:20;;;;;;;45.72;17.58;;;;;;;4.51;100.00;101414.31;4970717;28;20042;-72
2022/12/06 02:50:53;;;;;;;44.10;16.80;;;;;;;4.50;100.00;101412.59;4968595;28;20049;-72
2022/12/06 02:53:21;;;;;;;42.08;16.90;;;;;;;4.55;100.00;101415.81;4969587;28;20041;-72
2022/12/06 02:55:48;;;;;;;48.28;18.33;;;;;;;4.53;100.00;101412.38;4971816;28;20026;-72
2022/12/06 02:58:14;;;;;;;33.20;15.52;;;;;;;4.71;100.00;101417.44;4974675;28;20083;-72
2022/12/06 03:00:45;;;;;;;34.88;15.00;;;;;;;4.47;100.00;101412.81;4977145;28;20114;-72
2022/12/06 03:03:23;;;;;;;39.97;14.98;;;;;;;4.44;100.00;101412.16;4974210;28;20026;-72
2022/12/06 03:06:00;;;;;;;43.70;17.05;;;;;;;4.53;100.00;101412.38;4962846;28;20035;-72
2022/12/06 03:08:45;;;;;;;51.30;17.38;;;;;;;4.67;100.00;101418.59;4974224;28;20509;-72
2022/12/06 03:11:11;;;;;;;38.65;14.60;;;;;;;4.80;100.00;101411.41;4968571;28;20105;-72
2022/12/06 03:14:08;;;;;;;31.95;14.43;;;;;;;4.85;100.00;101411.97;4964606;28;20173;-72
2022/12/06 03:16:46;;;;;;;38.22;14.18;;;;;;;4.77;100.00;101403.59;4978609;28;20079;-72
2022/12/06 03:19:20;;;;;;;37.92;14.63;;;;;;;4.86;100.00;101402.94;4955259;28;20061;-72
2022/12/06 03:21:57;;;;;;;26.23;11.80;;;;;;;4.89;100.00;101408.09;4980231;28;20052;-72
2022/12/06 03:24:27;;;;;;;24.27;11.02;;;;;;;4.77;100.00;101403.59;4980952;28;20029;-72
2022/12/06 03:26:56;;;;;;;22.25;10.68;;;;;;;4.87;100.00;101410.00;5001268;28;20136;-72
2022/12/06 03:29:25;;;;;;;23.33;10.88;;;;;;;4.68;100.00;101409.59;4963395;28;20022;-72
2022/12/06 03:31:52;;;;;;;25.90;11.05;;;;;;;4.76;100.00;101401.84;4969089;28;20019;-72
2022/12/06 03:34:27;;;;;;;22.15;10.85;;;;;;;4.63;100.00;101402.75;4954771;28;20029;-72
2022/12/06 03:36:54;;;;;;;22.55;10.43;;;;;;;4.61;100.00;101403.78;4968034;28;20030;-74
2022/12/06 03:39:31;;;;;;;25.90;10.20;;;;;;;4.65;100.00;101399.94;4966714;28;20045;-72
2022/12/06 03:41:58;;;;;;;27.05;10.38;;;;;;;4.68;100.00;101405.06;4981662;28;20113;-72
2022/12/06 03:44:25;;;;;;;21.70;10.05;;;;;;;4.68;100.00;101404.22;4965766;28;20022;-72
2022/12/06 03:47:00;;;;;;;19.95;10.40;;;;;;;4.74;100.00;101398.44;4954661;28;20031;-72
2022/12/06 03:49:34;;;;;;;21.85;9.75;;;;;;;4.53;100.00;101404.34;4953926;28;20030;-71
2022/12/06 03:51:59;;;;;;;20.05;8.68;;;;;;;4.59;100.00;101401.22;4961950;28;20186;-72
2022/12/06 03:54:25;;;;;;;19.73;9.77;;;;;;;4.65;100.00;101399.09;4977682;28;20112;-72
2022/12/06 03:56:50;;;;;;;19.08;8.05;;;;;;;4.68;100.00;101393.50;4984480;28;20119;-72
2022/12/06 03:59:16;;;;;;;24.10;9.55;;;;;;;4.82;100.00;101390.69;4972272;28;20031;-72
2022/12/06 04:01:41;;;;;;;24.35;10.13;;;;;;;4.79;100.00;101390.94;4972744;28;20116;-72
2022/12/06 04:04:08;;;;;;;18.25;8.00;;;;;;;4.86;100.00;101386.84;4978897;28;20027;-72
2022/12/06 04:06:34;;;;;;;19.33;8.88;;;;;;;4.89;100.00;101386.63;4971339;28;20178;-72
2022/12/06 04:11:43;;;;;;;15.57;8.18;;;;;;;4.94;100.00;101389.81;4975463;28;20038;-72
2022/12/06 04:14:09;;;;;;;20.35;9.40;;;;;;;4.88;100.00;101390.25;4975095;28;20026;-72
2022/12/06 04:19:19;;;;;;;17.20;7.68;;;;;;;4.91;100.00;101384.69;4989725;28;20023;-72
2022/12/06 04:24:28;;;;;;;12.88;7.45;;;;;;;4.83;100.00;101377.19;4992319;28;20026;-72
2022/12/06 04:28:40;;;;;;;15.20;7.55;;;;;;;4.74;100.00;101371.59;4961404;28;20025;-72
2022/12/06 04:40:34;;;;;;;13.88;7.78;;;;;;;4.44;100.00;101364.75;4979063;28;20030;-72
2022/12/06 04:45:44;;;;;;;13.82;6.95;;;;;;;4.62;100.00;101367.97;4981839;28;20026;-75
2022/12/06 04:48:13;;;;;;;12.25;7.13;;;;;;;4.50;100.00;101369.69;4960576;28;20030;-77
2022/12/06 04:50:39;;;;;;;12.98;6.57;;;;;;;4.41;100.00;101362.28;4983848;28;20025;-75
2022/12/06 04:53:05;;;;;;;14.05;7.45;;;;;;;4.43;100.00;101357.66;4982082;28;20490;-76
2022/12/06 04:55:30;;;;;;;16.15;7.07;;;;;;;4.48;100.00;101360.03;4982108;28;20091;-75
2022/12/06 04:57:56;;;;;;;19.40;7.85;;;;;;;4.58;100.00;101361.97;4970217;28;20018;-76
2022/12/06 05:00:21;;;;;;;13.25;7.07;;;;;;;4.68;100.00;101355.94;4981362;28;20065;-75
2022/12/06 05:02:47;;;;;;;13.75;7.65;;;;;;;4.55;100.00;101354.13;4963883;28;20033;-76
2022/12/06 05:05:12;;;;;;;17.23;8.70;;;;;;;4.61;100.00;101359.06;4972151;28;20029;-76
2022/12/06 05:07:38;;;;;;;17.60;8.45;;;;;;;4.66;100.00;101365.94;4975940;28;20479;-76
2022/12/06 05:10:03;;;;;;;23.38;9.73;;;;;;;4.70;100.00;101356.72;4959814;28;20019;-75
2022/12/06 05:12:29;;;;;;;14.75;8.00;;;;;;;4.76;100.00;101364.31;4989079;28;20018;-76
2022/12/06 05:14:54;;;;;;;19.88;9.05;;;;;;;4.83;100.00;101354.88;4967354;28;20029;-75
2022/12/06 05:17:19;;;;;;;23.10;10.60;;;;;;;4.74;100.00;101360.88;4998261;28;20157;-76
2022/12/06 05:19:45;;;;;;;21.67;10.15;;;;;;;4.61;100.00;101361.75;4986214;28;20026;-76
2022/12/06 05:22:10;;;;;;;24.73;9.48;;;;;;;4.67;100.00;101364.97;4975060;28;20022;-76
2022/12/06 05:24:35;;;;;;;23.25;10.95;;;;;;;4.67;100.00;101364.97;4970757;28;20076;-75
2022/12/06 05:27:01;;;;;;;23.70;10.23;;;;;;;4.66;100.00;101363.25;4970020;28;20178;-76
2022/12/06 05:29:27;;;;;;;19.00;9.20;;;;;;;4.56;100.00;101363.91;4962928;28;20082;-76
2022/12/06 05:31:52;;;;;;;23.42;10.77;;;;;;;4.73;100.00;101367.22;4962027;28;20399;-76
2022/12/06 05:34:18;;;;;;;29.35;12.02;;;;;;;4.61;100.00;101367.09;4955261;28;20027;-76
2022/12/06 05:36:44;;;;;;;22.10;12.45;;;;;;;4.50;100.00;101368.81;4964533;28;20042;-76
2022/12/06 05:39:10;;;;;;;31.70;12.25;;;;;;;4.59;100.00;101362.81;4980965;28;20113;-76
2022/12/06 05:41:35;;;;;;;19.38;10.05;;;;;;;4.68;100.00;101369.34;4985208;28;20054;-76
2022/12/06 05:44:01;;;;;;;23.08;10.77;;;;;;;4.57;100.00;101367.44;4966211;28;20543;-76
2022/12/06 05:46:26;;;;;;;27.30;11.05;;;;;;;4.57;100.00;101364.78;4973875;28;20018;-77
2022/12/06 05:48:51;;;;;;;20.77;9.60;;;;;;;4.55;100.00;101356.81;4966418;28;20037;-77
2022/12/06 05:51:17;;;;;;;29.15;11.23;;;;;;;4.42;100.00;101361.31;4982274;28;20080;-76
2022/12/06 05:53:42;;;;;;;28.40;11.50;;;;;;;4.45;100.00;101366.47;4973992;28;20023;-76
2022/12/06 05:56:09;;;;;;;28.13;12.63;;;;;;;4.61;100.00;101367.09;4965481;28;20025;-76
2022/12/06 05:58:35;;;;;;;29.70;16.08;;;;;;;4.60;100.00;101365.41;4966265;28;20019;-76
2022/12/06 06:01:01;;;;;;;23.15;11.57;;;;;;;4.52;100.00;101362.41;4969851;28;20031;-76
2022/12/06 06:03:26;;;;;;;28.73;12.48;;;;;;;4.70;100.00;101364.75;4967625;28;20153;-76
2022/12/06 06:05:57;;;;;;;22.50;9.70;;;;;;;4.71;100.00;101371.84;4972546;28;20033;-76
2022/12/06 06:08:22;;;;;;;26.35;11.82;;;;;;;4.56;100.00;101363.03;4973512;28;20014;-76
2022/12/06 06:10:47;;;;;;;28.55;11.75;;;;;;;4.62;100.00;101360.78;4958212;28;20025;-76
2022/12/06 06:13:13;;;;;;;22.40;10.75;;;;;;;4.61;100.00;101359.06;4970797;28;20029;-76
2022/12/06 06:15:38;;;;;;;26.17;12.57;;;;;;;4.61;100.00;101350.16;4994025;28;20014;-75
2022/12/06 06:18:04;;;;;;;23.33;11.63;;;;;;;4.74;100.00;101356.38;4983223;28;20029;-76
2022/12/06 06:20:29;;;;;;;22.73;10.35;;;;;;;4.68;100.00;101355.94;4984100;28;20062;-76
2022/12/06 06:22:55;;;;;;;22.27;10.38;;;;;;;4.65;100.00;101350.81;4974888;28;20072;-76
2022/12/06 06:25:20;;;;;;;21.88;9.82;;;;;;;4.61;100.00;101361.75;4974507;28;20113;-77
2022/12/06 06:27:46;;;;;;;19.30;9.40;;;;;;;4.70;100.00;101354.03;4958460;28;20059;-77
2022/12/06 06:30:12;;;;;;;22.70;9.77;;;;;;;4.71;100.00;101356.59;4973973;28;20022;-76
2022/12/06 06:32:38;;;;;;;18.95;8.80;;;;;;;4.52;100.00;101362.41;4965972;28;20018;-77
2022/12/06 06:35:04;;;;;;;18.67;9.43;;;;;;;4.72;100.00;101362.81;4969498;28;20014;-76
2022/12/06 06:37:31;;;;;;;49.25;25.73;;;;;;;4.74;100.00;101361.72;4972338;28;20102;-76
2022/12/06 06:39:57;;;;;;;23.20;8.55;;;;;;;4.49;100.00;101367.97;4975360;28;20033;-76
2022/12/06 06:42:23;;;;;;;12.68;8.25;;;;;;;4.30;100.00;101362.16;4963231;28;20019;-76
2022/12/06 06:44:48;;;;;;;14.15;7.60;;;;;;;4.30;100.00;101367.53;4968765;28;20073;-76
2022/12/06 06:47:14;;;;;;;20.90;9.48;;;;;;;4.46;100.00;101373.56;4981506;28;20018;-76
2022/12/06 06:49:40;;;;;;;11.95;7.18;;;;;;;4.37;100.00;101368.84;4973093;28;20023;-76
2022/12/06 06:52:05;;;;;;;17.48;8.98;;;;;;;4.25;100.00;101380.41;4965663;28;20022;-76
2022/12/06 06:54:31;;;;;;;18.20;9.07;;;;;;;4.20;100.00;101366.44;4958344;28;20034;-76
2022/12/06 06:56:56;;;;;;;14.85;8.63;;;;;;;4.29;100.00;101376.53;4974906;28;20109;-76
2022/12/06 06:59:23;;;;;;;19.65;8.45;;;;;;;4.21;100.00;101373.53;4964610;28;20046;-76
2022/12/06 07:01:49;;;;;;;17.48;8.93;;;;;;;4.32;100.00;101376.34;4959498;28;20033;-76
2022/12/06 07:04:14;;;;;;;16.70;8.65;;;;;;;4.24;100.00;101374.19;4980952;28;20383;-76
2022/12/06 07:06:40;;;;;;;16.85;8.68;;;;;;;4.25;100.00;101385.75;4973494;28;20022;-76
2022/12/06 07:09:05;;;;;;;20.30;10.38;;;;;;;4.15;100.00;101390.00;4974153;28;20068;-76
2022/12/06 07:11:31;;;;;;;18.65;9.05;;;;;;;4.13;100.00;101381.25;4975779;28;20018;-76
2022/12/06 07:13:56;;;;;;;17.42;9.60;;;;;;;4.21;100.00;101379.75;4975239;28;20053;-76
2022/12/06 07:16:22;;;;;;;17.58;8.82;;;;;;;4.18;100.00;101373.75;4974984;28;20042;-76
2022/12/06 07:18:47;;;;;;;17.73;10.00;;;;;;;4.12;100.00;101379.53;4976143;28;20063;-78
2022/12/06 07:21:14;;;;;;;19.50;12.07;;;;;;;4.09;100.00;101376.06;4975206;28;20143;-76
2022/12/06 07:23:40;;;;;;;22.88;11.27;;;;;;;4.07;100.00;101377.16;4974466;28;20029;-76
2022/12/06 07:26:09;;;;;;;18.83;10.48;;;;;;;4.07;100.00;101375.31;4975899;28;20018;-76
2022/12/06 07:28:36;;;;;;;17.30;10.27;;;;;;;4.23;100.00;101384.97;4973913;28;20026;-76
2022/12/06 07:31:09;;;;;;;20.45;10.90;;;;;;;4.23;100.00;101376.94;4974478;28;20022;-76
2022/12/06 07:33:34;;;;;;;19.42;9.88;;;;;;;4.27;100.00;101381.16;4974888;28;20029;-76
2022/12/06 07:35:59;;;;;;;19.65;9.77;;;;;;;4.24;100.00;101378.69;4976748;28;20018;-76
2022/12/06 07:38:24;;;;;;;16.90;9.75;;;;;;;4.18;100.00;101385.31;4978815;28;20059;-73
2022/12/06 07:40:50;;;;;;;17.08;9.38;;;;;;;4.17;100.00;101382.72;4974693;28;20073;-73
2022/12/06 07:45:59;;;;;;;21.88;10.20;;;;;;;4.21;100.00;101378.88;4995188;28;20018;-72
2022/12/06 07:48:25;;;;;;;22.90;10.93;;;;;;;4.31;100.00;101393.38;4973042;28;20032;-74
2022/12/06 07:50:51;;;;;;;25.13;11.45;;;;;;;4.34;100.00;101390.47;4966600;28;20073;-73
2022/12/06 07:53:17;;;;;;;19.38;10.77;;;;;;;4.32;100.00;101382.56;4962638;28;20069;-73
2022/12/06 07:55:42;;;;;;;18.42;9.90;;;;;;;4.22;100.00;101380.59;4952512;28;20464;-73
2022/12/06 07:58:07;;;;;;;18.92;10.50;;;;;;;4.25;100.00;101385.75;4958776;28;20191;-73
2022/12/06 08:00:33;;;;;;;22.05;10.75;;;;;;;4.13;100.00;101373.19;4957606;28;20044;-71
2022/12/06 08:02:59;;;;;;;18.35;10.18;;;;;;;4.36;100.00;101377.81;4970855;28;20022;-72
2022/12/06 08:05:24;;;;;;;18.90;9.93;;;;;;;4.47;100.00;101375.25;4965982;28;20028;-73
2022/12/06 08:07:49;;;;;;;21.58;10.10;;;;;;;4.33;100.00;101373.53;4960788;28;20066;-74
2022/12/06 08:10:15;;;;;;;22.02;10.90;;;;;;;4.22;100.00;101380.59;4961513;28;20027;-73
2022/12/06 08:12:40;;;;;;;23.92;12.18;;;;;;;4.23;100.00;101393.03;4967449;28;20118;-71
2022/12/06 08:15:11;;;;;;;46.17;25.05;;;;;;;4.38;100.00;101397.34;4966443;28;20023;-72
2022/12/06 08:17:40;;;;;;;19.20;10.05;;;;;;;4.31;100.00;101390.72;4954083;28;20484;-73
2022/12/06 08:20:07;;;;;;;15.70;9.02;;;;;;;4.30;100.00;101391.63;4965371;28;20035;-72
2022/12/06 08:22:33;;;;;;;18.13;10.20;;;;;;;4.53;100.00;101390.94;4962947;28;20050;-73
2022/12/06 08:24:58;;;;;;;14.05;9.05;;;;;;;4.60;100.00;101392.22;4957908;28;20058;-72
2022/12/06 08:27:24;;;;;;;18.83;10.10;;;;;;;4.42;100.00;101398.84;4967425;28;20034;-74
2022/12/06 08:29:49;;;;;;;18.00;9.15;;;;;;;4.48;100.00;101398.41;4966628;28;20049;-73
2022/12/06 08:32:15;;;;;;;17.85;10.25;;;;;;;4.35;100.00;101402.91;4966027;28;20068;-71
2022/12/06 08:34:42;;;;;;;17.08;9.75;;;;;;;4.22;100.00;101402.03;4971592;28;20018;-73
2022/12/06 08:37:08;;;;;;;17.55;9.88;;;;;;;4.37;100.00;101409.06;4959306;28;20043;-71
2022/12/06 08:39:33;;;;;;;21.25;10.65;;;;;;;4.09;100.00;101397.50;4947168;28;20065;-73
2022/12/06 08:42:02;;;;;;;18.95;9.68;;;;;;;4.19;100.00;101402.25;4962864;28;20022;-73
2022/12/06 08:44:29;;;;;;;16.10;10.18;;;;;;;4.09;100.00;101400.19;4951325;28;20207;-75
2022/12/06 08:46:56;;;;;;;18.65;10.68;;;;;;;4.16;100.00;101403.31;4970913;28;20027;-71
2022/12/06 08:49:24;;;;;;;19.65;10.65;;;;;;;4.18;100.00;101400.53;4972390;28;20403;-73
2022/12/06 08:51:49;;;;;;;23.50;11.55;;;;;;;4.17;100.00;101398.81;4951477;28;20027;-70
2022/12/06 08:54:17;;;;;;;20.00;11.50;;;;;;;4.21;100.00;101401.19;4960027;28;20117;-71
2022/12/06 08:56:43;;;;;;;21.02;11.32;;;;;;;4.43;100.00;101403.25;4951683;28;20026;-72
2022/12/06 08:59:09;;;;;;;20.88;10.70;;;;;;;4.45;100.00;101413.88;4956344;28;20034;-72
2022/12/06 09:01:35;;;;;;;21.58;11.50;;;;;;;4.39;100.00;101415.16;4955792;28;20018;-74
2022/12/06 09:04:01;;;;;;;21.25;12.13;;;;;;;4.18;100.00;101408.59;4954747;28;20033;-73
2022/12/06 09:06:28;;;;;;;17.70;11.55;;;;;;;4.24;100.00;101416.22;4957641;28;20015;-71
2022/12/06 09:08:53;;;;;;;23.30;12.38;;;;;;;4.30;100.00;101415.75;4952519;28;20543;-72
2022/12/06 09:11:19;;;;;;;20.48;12.00;;;;;;;4.39;100.00;101414.31;4972272;28;20137;-74
2022/12/06 09:13:47;;;;;;;28.65;12.90;;;;;;;4.26;100.00;101422.31;4977957;28;20034;-76
2022/12/06 09:16:15;;;;;;;22.73;12.98;;;;;;;4.13;100.00;101426.78;4953870;28;20014;-74
2022/12/06 09:18:42;;;;;;;21.02;12.52;;;;;;;4.19;100.00;101419.19;4948776;28;20114;-72
2022/12/06 09:21:16;;;;;;;21.60;12.77;;;;;;;4.21;100.00;101427.13;4951491;28;20030;-74
2022/12/06 09:23:47;;;;;;;25.13;14.55;;;;;;;4.08;100.00;101419.91;4961895;28;20018;-74
2022/12/06 09:26:13;;;;;;;25.63;13.95;;;;;;;4.14;100.00;101415.09;4948891;28;20050;-71
2022/12/06 09:28:48;;;;;;;23.90;13.48;;;;;;;4.10;100.00;101419.78;4961639;28;20030;-73
2022/12/06 09:31:13;;;;;;;23.15;12.23;;;;;;;4.08;100.00;101425.28;4957391;28;20027;-76
2022/12/06 09:33:45;;;;;;;20.23;10.60;;;;;;;3.98;100.00;101426.88;4955422;28;20523;-73
2022/12/06 09:36:21;;;;;;;18.45;9.68;;;;;;;4.01;100.00;101432.00;4956110;28;20025;-74
2022/12/06 09:38:52;;;;;;;16.70;9.82;;;;;;;4.11;100.00;101426.00;4958064;28;20085;-72
2022/12/06 09:41:37;;;;;;;14.82;9.07;;;;;;;3.97;100.00;101429.63;4957201;28;20028;-74
2022/12/06 09:44:19;;;;;;;14.65;8.93;;;;;;;4.14;100.00;101420.47;4956767;28;20041;-72
2022/12/06 09:47:15;;;;;;;17.77;9.35;;;;;;;4.22;100.00;101418.13;4950565;28;20542;-73
2022/12/06 09:49:59;;;;;;;22.13;11.52;;;;;;;4.24;100.00;101421.56;4948331;28;20023;-75
2022/12/06 09:53:00;;;;;;;20.95;12.90;;;;;;;4.22;100.00;101418.13;4958424;28;20037;-73
2022/12/06 09:55:53;;;;;;;24.35;14.30;;;;;;;4.11;100.00;101415.28;4955462;28;20019;-75
2022/12/06 09:58:26;;;;;;;29.42;16.70;;;;;;;3.94;100.00;101419.97;4951273;28;20090;-72
2022/12/06 10:01:19;;;;;;;31.13;15.68;;;;;;;4.05;100.00;101412.09;4951542;28;20038;-72
2022/12/06 10:03:56;;;;;;;33.40;16.08;;;;;;;3.93;100.00;101417.41;4952018;28;20592;-74
2022/12/06 10:06:33;;;;;;;30.20;15.57;;;;;;;4.01;100.00;101415.94;4953731;28;20023;-73
2022/12/06 10:09:12;;;;;;;38.35;17.02;;;;;;;4.03;100.00;101413.13;4956218;28;20019;-73
2022/12/06 10:12:09;;;;;;;24.60;14.02;;;;;;;4.01;100.00;101409.72;4952044;28;20117;-73
2022/12/06 10:15:05;;;;;;;33.83;16.10;;;;;;;3.97;100.00;101403.69;4963661;28;20381;-74
2022/12/06 10:17:45;;;;;;;27.80;14.85;;;;;;;3.90;100.00;101406.88;4964654;28;20061;-73
2022/12/06 10:20:17;;;;;;;32.88;15.88;;;;;;;4.02;100.00;101406.91;4960256;28;20121;-74
2022/12/06 10:23:13;;;;;;;30.40;15.48;;;;;;;4.12;100.00;101406.31;4958586;28;20034;-72
2022/12/06 10:26:11;;;;;;;33.88;17.08;;;;;;;4.22;100.00;101407.41;4956529;28;20488;-73
2022/12/06 10:29:00;;;;;;;26.17;13.07;;;;;;;4.13;100.00;101408.03;4959469;28;20026;-74
2022/12/06 10:31:35;;;;;;;26.48;14.73;;;;;;;4.18;100.00;101411.25;4957366;28;20118;-74
2022/12/06 10:34:18;;;;;;;24.88;14.00;;;;;;;4.09;100.00;101405.53;4952965;28;20035;-74
2022/12/06 10:37:08;;;;;;;28.33;14.80;;;;;;;4.24;100.00;101406.34;4956221;28;20526;-74
2022/12/06 10:39:45;;;;;;;25.88;14.85;;;;;;;4.25;100.00;101404.53;4963186;28;20112;-73
2022/12/06 10:42:22;;;;;;;27.83;14.57;;;;;;;4.28;100.00;101406.97;4959683;28;20030;-73
2022/12/06 10:44:56;;;;;;;28.42;15.57;;;;;;;4.39;100.00;101403.56;4957411;28;20145;-74
2022/12/06 10:47:33;;;;;;;27.30;14.90;;;;;;;4.40;100.00;101399.94;4954922;28;20010;-74
2022/12/06 10:50:21;;;;;;;29.05;15.40;;;;;;;4.21;100.00;101405.69;4951037;28;20045;-74
2022/12/06 10:52:57;;;;;;;33.33;15.57;;;;;;;4.17;100.00;101404.16;4960155;28;20044;-74
2022/12/06 10:55:33;;;;;;;28.17;15.70;;;;;;;4.12;100.00;101401.81;4958679;28;20031;-73
2022/12/06 10:58:34;;;;;;;33.60;17.60;;;;;;;4.00;100.00;101400.81;4958769;28;20540;-75
2022/12/06 11:01:12;;;;;;;30.85;16.77;;;;;;;4.11;100.00;101400.09;4922051;28;20110;-74
2022/12/06 11:04:12;;;;;;;30.88;16.10;;;;;;;4.05;100.00;101398.69;4960032;28;20116;-73
2022/12/06 11:06:44;;;;;;;33.53;14.75;;;;;;;4.11;100.00;101394.75;4938308;28;20038;-73
2022/12/06 11:09:34;;;;;;;31.90;17.55;;;;;;;4.18;100.00;101384.47;4963404;28;20050;-74
2022/12/06 11:12:02;;;;;;;42.67;17.48;;;;;;;4.16;100.00;101392.59;4966464;28;20026;-73
2022/12/06 11:14:45;;;;;;;32.88;16.50;;;;;;;4.24;100.00;101394.78;4961395;28;20030;-73
2022/12/06 11:17:18;;;;;;;33.28;15.27;;;;;;;4.17;100.00;101394.28;4958484;28;20026;-72
2022/12/06 11:20:24;;;;;;;30.58;15.55;;;;;;;4.48;100.00;101387.69;4954245;28;20027;-73
2022/12/06 11:23:08;;;;;;;28.63;15.10;;;;;;;4.54;100.00;101392.63;4935218;28;20038;-74
2022/12/06 11:26:00;;;;;;;38.92;17.35;;;;;;;4.39;100.00;101383.00;4957612;28;20073;-74
2022/12/06 11:28:37;;;;;;;35.00;18.08;;;;;;;4.24;100.00;101392.09;4957790;28;20381;-73
2022/12/06 11:31:17;;;;;;;47.53;20.90;;;;;;;3.96;100.00;101390.41;4966142;28;20026;-72
2022/12/06 11:33:42;;;;;;;42.75;20.05;;;;;;;4.14;100.00;101378.44;4956263;28;20029;-73
2022/12/06 11:36:08;;;;;;;42.60;19.50;;;;;;;4.03;100.00;101376.47;4958025;28;20093;-73
2022/12/06 11:38:38;;;;;;;45.58;21.35;;;;;;;4.11;100.00;101377.78;4955203;28;20018;-74
2022/12/06 11:41:09;;;;;;;43.75;20.52;;;;;;;4.17;100.00;101377.38;4959302;28;20023;-73
2022/12/06 11:43:35;;;;;;;38.88;16.63;;;;;;;4.12;100.00;101369.66;4957219;28;20424;-73
2022/12/06 11:46:04;;;;;;;44.85;19.70;;;;;;;4.04;100.00;101372.88;4955268;28;20038;-72
2022/12/06 11:48:33;;;;;;;47.20;23.80;;;;;;;4.11;100.00;101367.94;4974985;28;20036;-73
2022/12/06 11:50:58;;;;;;;42.30;18.95;;;;;;;4.20;100.00;101366.44;4953468;28;20110;-72